Time;durP1;ratioP1;P1;durP2;ratioP2;P2;SDS_P1;SDS_P2;PMS_P1;PMS_P2;Temp;Humidity;BMP_temperature;BMP_pressure;BME280_temperature;BME280_humidity;BME280_pressure;Samples;Min_cycle;Max_cycle;Signal;HPM_P1;HPM_P2
2020/12/20 00:01:48;;;;;;;5.30;5.00;;;;;;;19.81;49.23;101010.09;5072721;28;20188;-67
2020/12/20 00:04:14;;;;;;;5.67;5.30;;;;;;;19.81;49.22;101006.50;5073921;28;20584;-67
2020/12/20 00:06:41;;;;;;;5.20;4.90;;;;;;;19.82;49.55;101005.50;5073517;28;20266;-60
2020/12/20 00:09:19;;;;;;;5.70;5.30;;;;;;;19.83;49.23;101005.31;5073217;28;20218;-61
2020/12/20 00:11:46;;;;;;;5.20;4.90;;;;;;;19.83;49.30;101004.47;5072366;28;20579;-60
2020/12/20 00:14:27;;;;;;;5.07;4.77;;;;;;;19.82;49.48;101009.06;5072355;28;20288;-61
2020/12/20 00:16:55;;;;;;;5.27;4.97;;;;;;;19.83;49.36;101013.47;5073290;28;20214;-61
2020/12/20 00:19:21;;;;;;;5.23;4.90;;;;;;;19.83;49.41;101001.75;5073016;28;20285;-66
2020/12/20 00:21:51;;;;;;;4.83;4.53;;;;;;;19.84;49.35;101001.59;5073046;28;20198;-66
2020/12/20 00:24:17;;;;;;;4.70;4.40;;;;;;;19.83;49.45;100994.47;5072149;28;20191;-59
2020/12/20 00:26:43;;;;;;;5.10;4.80;;;;;;;19.84;49.18;100993.44;5073052;28;20717;-65
2020/12/20 00:29:09;;;;;;;5.00;4.70;;;;;;;19.85;49.21;100989.69;5072845;28;20725;-60
2020/12/20 00:31:35;;;;;;;4.87;4.57;;;;;;;19.86;49.25;100990.53;5072873;28;20245;-61
2020/12/20 00:34:01;;;;;;;4.53;4.23;;;;;;;19.84;49.34;100985.28;5072921;28;20218;-59
2020/12/20 00:36:27;;;;;;;4.77;4.47;;;;;;;19.85;49.18;100992.41;5072840;28;20215;-64
2020/12/20 00:38:53;;;;;;;4.87;4.57;;;;;;;19.86;49.25;100994.13;5073105;28;20195;-64
2020/12/20 00:41:20;;;;;;;4.90;4.60;;;;;;;19.87;49.41;100994.97;5072926;28;20179;-61
2020/12/20 00:43:46;;;;;;;5.07;4.77;;;;;;;19.87;49.38;100994.97;5072083;28;20262;-64
2020/12/20 00:46:12;;;;;;;4.70;4.40;;;;;;;19.86;49.31;100996.84;5072860;28;20191;-60
2020/12/20 00:48:38;;;;;;;4.27;3.97;;;;;;;19.87;49.41;100998.56;5072621;28;20303;-59
2020/12/20 00:51:05;;;;;;;4.90;4.60;;;;;;;19.88;49.15;100999.41;5072578;28;20201;-66
2020/12/20 00:53:32;;;;;;;4.73;4.43;;;;;;;19.88;49.35;100999.41;5072660;28;20186;-67
2020/12/20 00:55:58;;;;;;;4.10;3.90;;;;;;;19.88;49.37;101002.97;5072685;28;20526;-66
2020/12/20 00:58:24;;;;;;;4.77;4.47;;;;;;;19.89;49.32;100999.22;5071569;28;20199;-67
2020/12/20 01:00:50;;;;;;;4.70;4.40;;;;;;;19.88;49.33;100992.09;5072332;28;20663;-67
2020/12/20 01:03:17;;;;;;;4.30;4.03;;;;;;;19.90;49.48;101013.66;5071710;28;20187;-61
2020/12/20 01:05:43;;;;;;;4.37;4.07;;;;;;;19.89;49.15;101011.97;5071551;28;20201;-61
2020/12/20 01:08:09;;;;;;;4.30;4.03;;;;;;;19.89;49.31;101011.97;5070448;28;20207;-61
2020/12/20 01:10:36;;;;;;;4.10;3.90;;;;;;;19.88;49.21;101008.41;5070387;28;20215;-61
2020/12/20 01:13:02;;;;;;;4.23;4.03;;;;;;;19.89;49.24;101012.81;5053834;28;20544;-61
2020/12/20 01:15:29;;;;;;;4.30;4.00;;;;;;;19.90;49.11;101008.22;5071511;28;20194;-61
2020/12/20 01:17:56;;;;;;;4.20;3.90;;;;;;;19.92;49.32;101017.06;5071468;28;20695;-59
2020/12/20 01:20:23;;;;;;;4.27;3.97;;;;;;;19.91;49.14;101012.66;5071559;28;20654;-66
2020/12/20 01:22:49;;;;;;;4.03;3.77;;;;;;;19.91;49.41;101016.22;5070637;28;20183;-59
2020/12/20 01:25:16;;;;;;;4.20;3.90;;;;;;;19.92;49.43;101006.19;5071583;28;20244;-59
2020/12/20 01:27:42;;;;;;;4.40;4.10;;;;;;;19.91;49.47;100999.91;5071339;28;20203;-59
2020/12/20 01:30:08;;;;;;;3.80;3.60;;;;;;;19.90;49.39;101006.38;5070438;28;20344;-66
2020/12/20 01:32:34;;;;;;;4.27;3.97;;;;;;;19.92;49.14;101011.63;5070655;28;20206;-59
2020/12/20 01:35:00;;;;;;;4.13;3.90;;;;;;;19.91;49.27;101010.78;5071573;28;20172;-60
2020/12/20 01:37:26;;;;;;;4.03;3.83;;;;;;;19.92;49.30;101015.19;5071310;28;20203;-61
2020/12/20 01:39:53;;;;;;;3.73;3.53;;;;;;;19.92;49.08;101020.63;5071280;28;20274;-58
2020/12/20 01:42:19;;;;;;;3.80;3.60;;;;;;;19.93;49.10;101025.03;5071123;28;20167;-59
2020/12/20 01:44:45;;;;;;;4.10;3.90;;;;;;;19.93;49.32;101022.31;5070131;28;20635;-62
2020/12/20 01:47:11;;;;;;;3.97;3.77;;;;;;;19.93;49.40;101022.31;5071093;28;20250;-59
2020/12/20 01:49:37;;;;;;;3.77;3.57;;;;;;;19.93;49.35;101025.03;5053648;28;20558;-65
2020/12/20 01:52:03;;;;;;;3.47;3.27;;;;;;;19.94;49.37;101023.16;5070351;28;20180;-59
2020/12/20 01:54:29;;;;;;;3.80;3.60;;;;;;;19.93;49.45;101014.16;5070437;28;20513;-59
2020/12/20 01:56:55;;;;;;;3.80;3.60;;;;;;;19.95;49.13;101021.31;5073392;28;20658;-60
2020/12/20 01:59:21;;;;;;;3.60;3.40;;;;;;;19.96;49.38;101012.13;5074854;28;20379;-60
2020/12/20 02:01:47;;;;;;;3.80;3.60;;;;;;;19.95;49.19;101014.00;5075132;28;20190;-61
2020/12/20 02:04:13;;;;;;;3.70;3.50;;;;;;;19.97;49.13;101013.84;5075072;28;20659;-61
2020/12/20 02:06:39;;;;;;;3.90;3.70;;;;;;;19.97;49.48;101017.41;5074153;28;20232;-65
2020/12/20 02:09:06;;;;;;;3.80;3.50;;;;;;;19.97;49.23;101013.84;5074074;28;20272;-61
2020/12/20 02:11:32;;;;;;;3.60;3.40;;;;;;;19.96;49.24;101010.25;5075033;28;20430;-61
2020/12/20 02:13:58;;;;;;;3.80;3.60;;;;;;;19.97;49.38;101014.69;5074776;28;20187;-66
2020/12/20 02:16:24;;;;;;;3.70;3.50;;;;;;;19.97;49.28;101005.69;5074653;28;20184;-66
2020/12/20 02:18:50;;;;;;;3.80;3.60;;;;;;;19.97;49.32;101013.84;5074481;28;20290;-67
2020/12/20 02:21:23;;;;;;;3.50;3.30;;;;;;;19.97;49.41;101016.53;5074393;28;20176;-66
2020/12/20 02:23:50;;;;;;;3.53;3.33;;;;;;;19.98;49.07;101010.09;5074478;28;20274;-65
2020/12/20 02:26:20;;;;;;;3.47;3.27;;;;;;;19.97;49.25;101008.41;5074384;28;20206;-65
2020/12/20 02:28:50;;;;;;;3.50;3.30;;;;;;;19.99;49.34;101015.34;5074688;28;20214;-61
2020/12/20 02:31:16;;;;;;;3.30;3.10;;;;;;;19.99;49.17;101006.34;5074493;28;20187;-61
2020/12/20 02:33:42;;;;;;;3.30;3.10;;;;;;;19.99;49.20;101003.63;5074514;28;20198;-66
2020/12/20 02:36:08;;;;;;;3.20;3.00;;;;;;;19.99;49.23;101000.91;5070170;28;20256;-66
2020/12/20 02:38:34;;;;;;;3.40;3.20;;;;;;;19.99;49.13;101012.63;5074088;28;20263;-66
2020/12/20 02:41:00;;;;;;;3.33;3.13;;;;;;;19.99;49.43;101011.78;5073275;28;20182;-59
2020/12/20 02:43:27;;;;;;;3.40;3.20;;;;;;;20.00;49.25;101002.63;5074191;28;20188;-59
2020/12/20 02:45:53;;;;;;;2.93;2.77;;;;;;;20.00;49.32;100997.19;5074338;28;20274;-65
2020/12/20 02:48:19;;;;;;;3.30;3.10;;;;;;;20.00;49.40;100999.91;5074175;28;20234;-63
2020/12/20 02:50:45;;;;;;;3.17;2.97;;;;;;;20.01;49.23;100998.88;5074114;28;20219;-65
2020/12/20 02:53:11;;;;;;;3.13;2.93;;;;;;;20.01;49.32;101004.31;5074140;28;20176;-59
2020/12/20 02:55:37;;;;;;;2.80;2.70;;;;;;;20.02;49.10;101012.28;5072950;28;20171;-60
2020/12/20 02:58:03;;;;;;;3.13;2.93;;;;;;;20.02;49.25;101006.00;5073682;28;20203;-67
2020/12/20 03:00:31;;;;;;;3.10;2.90;;;;;;;20.01;49.25;101005.16;5073957;28;20187;-60
2020/12/20 03:02:57;;;;;;;2.93;2.83;;;;;;;20.01;49.19;101009.75;5073698;28;20186;-65
2020/12/20 03:05:24;;;;;;;3.07;2.87;;;;;;;20.03;49.29;101010.41;5073723;28;20775;-65
2020/12/20 03:07:50;;;;;;;3.00;2.80;;;;;;;20.03;49.26;101013.13;5072569;28;20215;-65
2020/12/20 03:10:17;;;;;;;2.97;2.77;;;;;;;20.03;49.31;101014.00;5073638;28;20557;-65
2020/12/20 03:12:44;;;;;;;3.20;3.00;;;;;;;20.02;49.14;101022.31;5073812;28;20187;-65
2020/12/20 03:15:10;;;;;;;2.90;2.73;;;;;;;20.02;49.28;101017.72;5073750;28;20194;-65
2020/12/20 03:17:36;;;;;;;2.80;2.70;;;;;;;20.02;49.12;101012.28;5073489;28;20672;-62
2020/12/20 03:20:03;;;;;;;2.80;2.70;;;;;;;20.02;49.30;101008.72;5073544;28;20237;-61
2020/12/20 03:22:29;;;;;;;2.90;2.70;;;;;;;20.04;49.13;101017.56;5073514;28;20183;-61
2020/12/20 03:24:55;;;;;;;3.20;3.00;;;;;;;20.04;49.22;101014.84;5073539;28;20256;-61
2020/12/20 03:27:21;;;;;;;3.20;3.00;;;;;;;20.05;49.26;101016.53;5073419;28;20211;-61
2020/12/20 03:29:47;;;;;;;2.77;2.57;;;;;;;20.04;49.17;101012.13;5073596;28;20305;-66
2020/12/20 03:32:14;;;;;;;3.00;2.80;;;;;;;20.04;49.13;101018.41;5073376;28;20180;-66
2020/12/20 03:34:40;;;;;;;2.67;2.50;;;;;;;20.05;49.43;101016.53;5073195;28;20503;-66
2020/12/20 03:37:06;;;;;;;2.83;2.73;;;;;;;20.05;49.19;101016.53;5072894;28;20632;-66
2020/12/20 03:39:32;;;;;;;3.00;2.80;;;;;;;20.06;49.18;101018.22;5072850;28;20188;-59
2020/12/20 03:41:58;;;;;;;2.80;2.60;;;;;;;20.04;49.27;101021.13;5072880;28;20792;-59
2020/12/20 03:44:24;;;;;;;2.60;2.50;;;;;;;20.05;49.27;101024.69;5072990;28;20263;-61
2020/12/20 03:46:50;;;;;;;2.70;2.50;;;;;;;20.06;49.37;101034.53;5072983;28;20183;-65
2020/12/20 03:49:16;;;;;;;2.70;2.60;;;;;;;20.06;49.25;101029.09;5072728;28;20436;-65
2020/12/20 03:51:42;;;;;;;2.70;2.50;;;;;;;20.06;49.38;101024.50;5072922;28;20188;-65
2020/12/20 03:54:08;;;;;;;2.40;2.30;;;;;;;20.07;49.27;101025.38;5072791;28;20183;-65
2020/12/20 03:56:34;;;;;;;2.53;2.43;;;;;;;20.07;49.04;101019.94;5072760;28;20790;-61
2020/12/20 03:59:01;;;;;;;2.60;2.50;;;;;;;20.06;49.30;101020.94;5072704;28;20664;-66
2020/12/20 04:01:27;;;;;;;2.33;2.23;;;;;;;20.08;49.04;101021.63;5072775;28;20180;-66
2020/12/20 04:03:53;;;;;;;2.60;2.50;;;;;;;20.07;49.19;101020.78;5072842;28;20187;-65
2020/12/20 04:06:19;;;;;;;2.30;2.20;;;;;;;20.09;49.08;101023.31;5072662;28;20233;-65
2020/12/20 04:08:45;;;;;;;2.20;2.10;;;;;;;20.08;49.22;101021.63;5071715;28;20200;-64
2020/12/20 04:11:11;;;;;;;2.50;2.40;;;;;;;20.08;49.08;101018.91;5072591;28;20236;-66
2020/12/20 04:13:37;;;;;;;2.27;2.17;;;;;;;20.08;49.14;101017.03;5072367;28;20533;-67
2020/12/20 04:16:10;;;;;;;2.63;2.50;;;;;;;20.09;49.31;101017.88;5072318;28;20180;-66
2020/12/20 04:18:36;;;;;;;2.47;2.37;;;;;;;20.08;49.21;101011.59;5071874;28;20199;-67
2020/12/20 04:21:02;;;;;;;2.30;2.20;;;;;;;20.09;49.17;101013.28;5071232;28;20237;-65
2020/12/20 04:23:28;;;;;;;2.30;2.20;;;;;;;20.09;49.10;101015.16;5072201;28;20178;-62
2020/12/20 04:25:55;;;;;;;2.23;2.13;;;;;;;20.10;49.44;101019.59;5072325;28;20298;-61
2020/12/20 04:28:21;;;;;;;2.60;2.50;;;;;;;20.11;49.30;101018.56;5072391;28;20204;-59
2020/12/20 04:30:47;;;;;;;2.30;2.20;;;;;;;20.11;49.28;101026.72;5072062;28;20273;-60
2020/12/20 04:33:13;;;;;;;2.33;2.23;;;;;;;20.10;49.40;101020.44;5054474;28;20723;-59
2020/12/20 04:35:39;;;;;;;2.10;2.00;;;;;;;20.10;49.22;101014.16;5071884;28;20232;-66
2020/12/20 04:38:05;;;;;;;2.30;2.20;;;;;;;20.10;49.29;101015.00;5071890;28;20268;-66
2020/12/20 04:40:31;;;;;;;2.20;2.10;;;;;;;20.10;49.17;101012.28;5072032;28;20168;-67
2020/12/20 04:43:05;;;;;;;2.00;1.90;;;;;;;20.11;49.12;101013.13;5071275;28;20655;-61
2020/12/20 04:45:32;;;;;;;2.47;2.37;;;;;;;20.11;49.12;101024.00;5072215;28;20191;-65
2020/12/20 04:47:58;;;;;;;2.10;2.00;;;;;;;20.11;49.18;101022.16;5072018;28;20243;-65
2020/12/20 04:50:24;;;;;;;2.30;2.20;;;;;;;20.11;49.15;101015.84;5071675;28;20234;-59
2020/12/20 04:52:53;;;;;;;2.10;2.00;;;;;;;20.12;49.37;101023.00;5071828;28;20263;-61
2020/12/20 04:55:22;;;;;;;2.10;2.00;;;;;;;20.11;49.23;101011.28;5054429;28;20172;-61
2020/12/20 04:57:49;;;;;;;2.20;2.10;;;;;;;20.12;49.28;101003.97;5070679;28;20211;-61
2020/12/20 05:00:15;;;;;;;2.20;2.10;;;;;;;20.11;49.26;101004.97;5070762;28;20183;-66
2020/12/20 05:02:41;;;;;;;2.40;2.30;;;;;;;20.12;49.23;100995.84;5071565;28;20266;-67
2020/12/20 05:05:07;;;;;;;2.20;2.10;;;;;;;20.14;49.35;101007.38;5071841;28;20194;-67
2020/12/20 05:07:34;;;;;;;2.00;1.90;;;;;;;20.13;49.28;101003.81;5071634;28;20211;-66
2020/12/20 05:10:00;;;;;;;2.00;1.90;;;;;;;20.14;49.15;101004.66;5071499;28;20267;-59
2020/12/20 05:12:31;;;;;;;2.10;2.00;;;;;;;20.14;49.13;100999.22;5071528;28;20274;-60
2020/12/20 05:14:57;;;;;;;1.87;1.77;;;;;;;20.14;49.21;100999.22;5071518;28;20696;-61
2020/12/20 05:17:24;;;;;;;1.90;1.80;;;;;;;20.13;49.14;101008.41;5071377;28;20545;-61
2020/12/20 05:19:50;;;;;;;2.17;2.07;;;;;;;20.15;49.07;101028.09;5071667;28;20176;-61
2020/12/20 05:22:23;;;;;;;2.00;1.90;;;;;;;20.14;49.03;101021.81;5071595;28;20188;-66
2020/12/20 05:24:50;;;;;;;2.00;1.90;;;;;;;20.14;49.28;101034.56;5071840;28;20188;-66
2020/12/20 05:27:19;;;;;;;2.10;2.00;;;;;;;20.14;49.16;101029.97;5071529;28;20187;-66
2020/12/20 05:29:49;;;;;;;2.03;1.93;;;;;;;20.15;49.06;101033.53;5071280;28;20199;-61
2020/12/20 05:32:25;;;;;;;1.90;1.80;;;;;;;20.15;49.18;101033.53;5074325;28;20289;-61
2020/12/20 05:35:05;;;;;;;2.00;1.90;;;;;;;20.15;49.24;101033.53;5074403;28;20270;-61
2020/12/20 05:37:34;;;;;;;1.80;1.70;;;;;;;20.15;48.98;101033.53;5075305;28;20206;-64
2020/12/20 05:40:02;;;;;;;1.90;1.80;;;;;;;20.15;49.26;101028.09;5075374;28;20183;-65
2020/12/20 05:42:28;;;;;;;2.00;1.90;;;;;;;20.16;49.05;101029.78;5074482;28;20183;-66
2020/12/20 05:45:06;;;;;;;1.87;1.77;;;;;;;20.16;49.28;101029.78;5075519;28;20300;-64
2020/12/20 05:47:32;;;;;;;1.90;1.80;;;;;;;20.15;49.21;101020.78;5074180;28;20250;-65
2020/12/20 05:49:58;;;;;;;1.90;1.80;;;;;;;20.17;49.03;101023.34;5074067;28;20659;-65
2020/12/20 05:52:24;;;;;;;2.00;1.90;;;;;;;20.17;49.04;101024.19;5075019;28;20184;-61
2020/12/20 05:54:50;;;;;;;2.00;1.90;;;;;;;20.17;49.21;101017.91;5074988;28;20262;-65
2020/12/20 05:57:18;;;;;;;1.90;1.80;;;;;;;20.18;49.19;101027.75;5075027;28;20184;-65
2020/12/20 05:59:45;;;;;;;2.07;1.97;;;;;;;20.18;49.11;101025.88;5074282;28;20176;-65
2020/12/20 06:02:11;;;;;;;1.90;1.80;;;;;;;20.18;49.03;101023.16;5075239;28;20250;-64
2020/12/20 06:04:37;;;;;;;2.00;1.90;;;;;;;20.19;49.25;101026.72;5075151;28;20202;-65
2020/12/20 06:07:04;;;;;;;1.83;1.73;;;;;;;20.19;49.23;101030.31;5074864;28;20187;-65
2020/12/20 06:09:31;;;;;;;2.00;1.90;;;;;;;20.19;49.12;101037.59;5074607;28;20546;-61
2020/12/20 06:11:58;;;;;;;1.73;1.63;;;;;;;20.19;49.26;101033.00;5074706;28;20815;-61
2020/12/20 06:14:28;;;;;;;1.73;1.63;;;;;;;20.20;49.24;101036.59;5074704;28;20214;-61
2020/12/20 06:17:22;;;;;;;1.70;1.60;;;;;;;20.19;49.33;101040.31;5074639;28;20275;-67
2020/12/20 06:19:57;;;;;;;1.53;1.53;;;;;;;20.19;49.38;101040.31;5074656;28;20509;-61
2020/12/20 06:22:29;;;;;;;1.87;1.77;;;;;;;20.19;49.33;101043.88;5075147;28;20179;-60
2020/12/20 06:24:57;;;;;;;1.83;1.73;;;;;;;20.19;49.04;101043.88;5074665;28;20179;-59
2020/12/20 06:27:24;;;;;;;2.00;1.90;;;;;;;20.20;49.14;101042.88;5074252;28;20286;-61
2020/12/20 06:29:52;;;;;;;1.90;1.80;;;;;;;20.20;49.04;101042.03;5074272;28;20204;-61
2020/12/20 06:32:21;;;;;;;1.73;1.63;;;;;;;20.20;49.26;101044.72;5074275;28;20536;-66
2020/12/20 06:34:47;;;;;;;1.90;1.80;;;;;;;20.21;49.06;101049.16;5057344;28;20191;-67
2020/12/20 06:37:16;;;;;;;1.70;1.60;;;;;;;20.22;49.23;101051.69;5073394;28;20585;-66
2020/12/20 06:39:42;;;;;;;1.90;1.80;;;;;;;20.20;49.02;101047.44;5073673;28;20180;-66
2020/12/20 06:42:08;;;;;;;1.90;1.80;;;;;;;20.22;49.19;101050.84;5074527;28;20329;-66
2020/12/20 06:44:34;;;;;;;1.80;1.70;;;;;;;20.22;49.12;101048.13;5074837;28;20236;-66
2020/12/20 06:47:00;;;;;;;1.50;1.50;;;;;;;20.23;49.20;101041.66;5073550;28;20261;-59
2020/12/20 06:49:42;;;;;;;1.80;1.70;;;;;;;20.23;49.04;101052.53;5073058;28;20250;-65
2020/12/20 06:52:18;;;;;;;1.50;1.50;;;;;;;20.23;49.22;101049.81;5073944;28;20188;-64
2020/12/20 06:55:05;;;;;;;1.83;1.73;;;;;;;20.22;49.19;101042.69;5074048;28;20206;-65
2020/12/20 06:57:31;;;;;;;1.50;1.50;;;;;;;20.24;49.16;101054.25;5074139;28;20203;-59
2020/12/20 06:59:57;;;;;;;1.73;1.63;;;;;;;20.25;49.15;101047.78;5074229;28;20187;-65
2020/12/20 07:02:46;;;;;;;1.40;1.40;;;;;;;20.23;49.25;101047.09;5073990;28;20797;-59
2020/12/20 07:05:33;;;;;;;1.43;1.33;;;;;;;20.23;49.09;101047.09;5073767;28;20187;-60
2020/12/20 07:08:31;;;;;;;1.63;1.53;;;;;;;20.23;49.26;101049.81;5073517;28;20204;-59
2020/12/20 07:10:58;;;;;;;1.40;1.30;;;;;;;20.24;49.28;101046.09;5073563;28;20203;-59
2020/12/20 07:13:34;;;;;;;1.60;1.50;;;;;;;20.24;49.08;101054.25;5073632;28;20684;-60
2020/12/20 07:16:07;;;;;;;1.50;1.50;;;;;;;20.24;49.20;101048.81;5073626;28;20517;-66
2020/12/20 07:19:03;;;;;;;1.53;1.43;;;;;;;20.25;49.28;101061.38;5073653;28;20195;-67
2020/12/20 07:21:29;;;;;;;1.60;1.50;;;;;;;20.25;49.27;101058.66;5072895;28;20404;-66
2020/12/20 07:24:11;;;;;;;1.30;1.30;;;;;;;20.24;49.21;101065.97;5073693;28;20185;-66
2020/12/20 07:26:37;;;;;;;1.57;1.50;;;;;;;20.26;49.20;101067.66;5073359;28;20215;-60
2020/12/20 07:29:03;;;;;;;1.40;1.40;;;;;;;20.25;49.12;101074.97;5073192;28;20212;-61
2020/12/20 07:31:29;;;;;;;1.43;1.40;;;;;;;20.26;49.19;101071.22;5073212;28;20291;-61
2020/12/20 07:33:56;;;;;;;1.70;1.60;;;;;;;20.25;49.34;101077.69;5073246;28;20192;-61
2020/12/20 07:36:22;;;;;;;1.30;1.30;;;;;;;20.26;49.26;101073.94;5073256;28;20175;-59
2020/12/20 07:38:48;;;;;;;1.23;1.23;;;;;;;20.27;48.99;101074.78;5073159;28;20230;-64
2020/12/20 07:41:16;;;;;;;1.50;1.40;;;;;;;20.27;49.12;101083.78;5068183;28;20196;-64
2020/12/20 07:43:45;;;;;;;1.60;1.50;;;;;;;20.26;49.24;101087.53;5073076;28;20172;-64
2020/12/20 07:46:12;;;;;;;1.53;1.43;;;;;;;20.28;49.10;101090.09;5072903;28;20198;-59
2020/12/20 07:48:38;;;;;;;1.60;1.50;;;;;;;20.28;49.10;101087.38;5071854;28;20210;-59
2020/12/20 07:51:14;;;;;;;1.47;1.30;;;;;;;20.27;49.28;101089.22;5071715;28;20216;-58
2020/12/20 07:53:47;;;;;;;1.30;1.30;;;;;;;20.29;49.05;101091.78;5072209;28;20187;-59
2020/12/20 07:56:26;;;;;;;1.20;1.20;;;;;;;20.28;49.18;101096.38;5072965;28;20213;-59
2020/12/20 07:58:57;;;;;;;1.13;1.13;;;;;;;20.28;49.31;101095.53;5071967;28;20214;-59
2020/12/20 08:01:23;;;;;;;1.70;1.60;;;;;;;20.28;48.97;101096.38;5072872;28;20180;-59
2020/12/20 08:03:59;;;;;;;1.60;1.50;;;;;;;20.29;49.29;101099.94;5072700;28;20199;-60
2020/12/20 08:06:25;;;;;;;1.20;1.20;;;;;;;20.28;48.98;101104.53;5072493;28;20619;-60
2020/12/20 08:08:51;;;;;;;1.60;1.50;;;;;;;20.29;49.06;101099.94;5071367;28;20641;-64
2020/12/20 08:11:19;;;;;;;1.40;1.33;;;;;;;20.30;49.15;101107.06;5072388;28;20179;-65
2020/12/20 08:13:52;;;;;;;1.20;1.20;;;;;;;20.29;48.98;101108.09;5072302;28;20552;-65
2020/12/20 08:16:45;;;;;;;1.37;1.33;;;;;;;20.28;49.25;101109.97;5072452;28;20497;-65
2020/12/20 08:19:21;;;;;;;1.50;1.40;;;;;;;20.28;49.20;101115.41;5070718;28;20302;-66
2020/12/20 08:22:02;;;;;;;1.40;1.40;;;;;;;20.28;49.04;101115.41;5072307;28;20176;-59
2020/12/20 08:24:30;;;;;;;1.40;1.30;;;;;;;20.28;48.97;101115.41;5072195;28;20260;-66
2020/12/20 08:26:57;;;;;;;1.30;1.30;;;;;;;20.29;48.98;101119.81;5071016;28;20183;-64
2020/12/20 08:29:23;;;;;;;1.30;1.30;;;;;;;20.32;49.19;101116.75;5070989;28;20554;-60
2020/12/20 08:31:49;;;;;;;1.40;1.40;;;;;;;20.38;49.22;101126.97;5071311;28;20271;-66
2020/12/20 08:34:16;;;;;;;1.50;1.43;;;;;;;20.47;49.19;101125.13;5072203;28;20176;-65
2020/12/20 08:36:43;;;;;;;1.33;1.23;;;;;;;20.54;49.13;101126.97;5071309;28;20699;-65
2020/12/20 08:39:09;;;;;;;1.20;1.20;;;;;;;20.63;49.09;101119.69;5072185;28;20215;-65
2020/12/20 08:41:36;;;;;;;1.20;1.20;;;;;;;20.73;49.00;101119.50;5071040;28;20180;-65
2020/12/20 08:44:10;;;;;;;1.47;1.37;;;;;;;20.80;48.94;101120.50;5072026;28;20186;-65
2020/12/20 08:46:37;;;;;;;1.30;1.30;;;;;;;20.90;48.66;101129.31;5071815;28;20185;-65
2020/12/20 08:49:17;;;;;;;1.20;1.20;;;;;;;20.96;48.86;101128.63;5071714;28;20609;-65
2020/12/20 08:51:44;;;;;;;1.23;1.20;;;;;;;21.04;48.63;101125.88;5054133;28;20202;-66
2020/12/20 08:54:11;;;;;;;1.23;1.23;;;;;;;21.10;48.74;101127.91;5067374;28;20199;-66
2020/12/20 08:56:55;;;;;;;1.10;1.10;;;;;;;21.19;48.59;101127.88;5068426;28;20616;-66
2020/12/20 08:59:29;;;;;;;1.17;1.17;;;;;;;21.27;48.31;101133.31;5066119;28;20199;-66
2020/12/20 09:01:55;;;;;;;1.13;1.13;;;;;;;21.33;48.54;101135.38;5053668;28;20228;-66
2020/12/20 09:04:22;;;;;;;1.10;1.10;;;;;;;21.37;48.54;101144.88;5071043;28;20572;-66
2020/12/20 09:06:58;;;;;;;1.20;1.20;;;;;;;21.45;48.36;101136.66;5067977;28;20214;-69
2020/12/20 09:09:25;;;;;;;1.30;1.20;;;;;;;21.54;48.81;101141.06;5070217;28;20215;-71
2020/12/20 09:11:51;;;;;;;1.53;1.13;;;;;;;21.66;48.80;101145.09;5069865;28;20701;-66
2020/12/20 09:14:17;;;;;;;4.03;1.30;;;;;;;21.75;49.07;101144.00;5070715;28;20298;-70
2020/12/20 09:16:43;;;;;;;1.93;1.20;;;;;;;21.86;49.21;101158.28;5054068;28;20188;-67
2020/12/20 09:19:13;;;;;;;1.30;1.20;;;;;;;21.92;48.95;101152.94;5070446;28;20819;-71
2020/12/20 09:21:39;;;;;;;1.40;1.30;;;;;;;21.97;49.01;101155.13;5068469;28;20191;-66
2020/12/20 09:24:05;;;;;;;2.10;1.10;;;;;;;22.00;48.75;101157.47;5053701;28;20261;-66
2020/12/20 09:26:31;;;;;;;2.30;1.17;;;;;;;22.03;48.71;101154.44;5053725;28;20615;-67
2020/12/20 09:28:57;;;;;;;1.53;1.30;;;;;;;22.07;48.44;101161.25;5071188;28;20292;-66
2020/12/20 09:31:23;;;;;;;1.90;1.10;;;;;;;22.10;48.50;101160.88;5053492;28;20183;-67
2020/12/20 09:33:52;;;;;;;1.20;1.10;;;;;;;22.14;48.40;101170.38;5053837;28;20214;-67
2020/12/20 09:36:22;;;;;;;1.73;1.40;;;;;;;22.18;48.32;101159.97;5037717;28;20685;-67
2020/12/20 09:38:50;;;;;;;1.97;1.20;;;;;;;22.22;48.17;101164.03;5053453;28;20203;-67
2020/12/20 09:41:17;;;;;;;2.30;1.40;;;;;;;22.24;48.29;101165.56;5053745;28;20583;-65
2020/12/20 09:43:44;;;;;;;1.53;1.20;;;;;;;22.25;48.07;101156.34;5071119;28;20332;-66
2020/12/20 09:46:17;;;;;;;1.53;1.10;;;;;;;22.28;48.10;101160.59;5071077;28;20211;-66
2020/12/20 09:48:43;;;;;;;1.63;1.20;;;;;;;22.29;48.14;101154.97;5070234;28;20191;-63
2020/12/20 09:51:09;;;;;;;1.63;1.10;;;;;;;22.32;48.17;101162.78;5071324;28;20288;-63
2020/12/20 09:53:35;;;;;;;1.63;1.10;;;;;;;22.35;48.14;101161.56;5071412;28;20191;-63
2020/12/20 09:56:01;;;;;;;1.20;1.10;;;;;;;22.38;47.99;101165.78;5071397;28;20180;-69
2020/12/20 09:58:28;;;;;;;1.20;1.10;;;;;;;22.40;48.10;101169.19;5070364;28;20201;-69
2020/12/20 10:00:54;;;;;;;1.17;1.17;;;;;;;22.43;48.11;101168.81;5037239;28;20271;-68
2020/12/20 10:03:21;;;;;;;1.30;1.20;;;;;;;22.45;48.10;101173.06;5071116;28;20567;-65
2020/12/20 10:05:47;;;;;;;1.00;1.00;;;;;;;22.49;47.97;101176.28;5070895;28;20191;-62
2020/12/20 10:08:15;;;;;;;1.20;1.10;;;;;;;22.51;47.81;101188.72;5070918;28;20290;-69
2020/12/20 10:10:41;;;;;;;1.30;1.20;;;;;;;22.55;48.11;101186.47;5071004;28;20219;-62
2020/12/20 10:13:07;;;;;;;2.90;1.20;;;;;;;22.58;48.05;101183.38;5070660;28;20199;-64
2020/12/20 10:15:33;;;;;;;1.10;1.10;;;;;;;22.59;47.73;101185.06;5069214;28;20192;-62
2020/12/20 10:18:01;;;;;;;1.20;1.10;;;;;;;22.61;47.95;101183.84;5072932;28;20261;-62
2020/12/20 10:20:29;;;;;;;1.10;1.10;;;;;;;22.64;47.84;101182.63;5074499;28;20682;-62
2020/12/20 10:22:55;;;;;;;1.30;1.10;;;;;;;22.65;47.93;101178.88;5074393;28;20632;-62
2020/12/20 10:25:21;;;;;;;1.40;1.30;;;;;;;22.68;47.76;101173.03;5074449;28;20171;-62
2020/12/20 10:27:47;;;;;;;1.10;1.10;;;;;;;22.71;47.52;101172.66;5072107;28;20676;-62
2020/12/20 10:30:13;;;;;;;1.20;1.10;;;;;;;22.74;47.66;101172.31;5073635;28;20242;-62
2020/12/20 10:32:40;;;;;;;1.10;1.10;;;;;;;22.78;47.92;101164.59;5074353;28;20263;-62
2020/12/20 10:35:06;;;;;;;1.10;1.10;;;;;;;22.80;47.63;101165.28;5074446;28;20283;-62
2020/12/20 10:37:32;;;;;;;1.17;1.07;;;;;;;22.83;47.45;101165.78;5074454;28;20655;-62
2020/12/20 10:39:58;;;;;;;1.47;1.20;;;;;;;22.86;47.74;101156.38;5074113;28;20245;-62
2020/12/20 10:42:24;;;;;;;1.40;1.30;;;;;;;22.88;47.65;101160.59;5073857;28;20188;-63
2020/12/20 10:44:50;;;;;;;1.33;1.20;;;;;;;22.92;47.59;101158.34;5073656;28;20179;-63
2020/12/20 10:47:16;;;;;;;1.00;1.00;;;;;;;22.97;47.69;101158.66;5073821;28;20219;-64
2020/12/20 10:49:42;;;;;;;1.20;1.10;;;;;;;22.99;47.67;101158.47;5073920;28;20219;-64
2020/12/20 10:52:08;;;;;;;2.33;1.00;;;;;;;23.02;47.52;101166.28;5074114;28;20188;-65
2020/12/20 10:54:34;;;;;;;2.37;1.10;;;;;;;23.04;47.51;101162.34;5074007;28;20641;-65
2020/12/20 10:57:01;;;;;;;1.40;1.30;;;;;;;23.07;47.44;101150.19;5073758;28;20195;-62
2020/12/20 10:59:28;;;;;;;1.93;1.17;;;;;;;23.09;47.56;101153.56;5073849;28;20214;-64
2020/12/20 11:01:54;;;;;;;1.37;1.27;;;;;;;23.09;47.40;101153.56;5072779;28;20226;-62
2020/12/20 11:04:21;;;;;;;1.30;1.20;;;;;;;23.13;47.52;101152.16;5073682;28;20191;-68
2020/12/20 11:06:47;;;;;;;1.20;1.10;;;;;;;23.16;47.34;101149.91;5056159;28;20679;-63
2020/12/20 11:09:13;;;;;;;1.80;1.50;;;;;;;23.19;47.62;101152.28;5055751;28;20228;-64
2020/12/20 11:11:39;;;;;;;3.57;1.73;;;;;;;23.22;47.64;101151.06;5072623;28;20195;-68
2020/12/20 11:14:05;;;;;;;3.97;2.10;;;;;;;23.24;47.68;101152.56;5073690;28;20180;-68
2020/12/20 11:16:32;;;;;;;3.77;2.47;;;;;;;23.26;47.69;101153.22;5073596;28;20176;-68
2020/12/20 11:18:58;;;;;;;5.90;2.90;;;;;;;23.29;47.63;101149.25;5052276;28;20218;-68
2020/12/20 11:21:24;;;;;;;7.23;3.47;;;;;;;23.30;47.93;101150.94;5053400;28;20203;-68
2020/12/20 11:23:50;;;;;;;4.70;3.23;;;;;;;23.30;47.86;101144.63;5059892;28;20191;-66
2020/12/20 11:26:20;;;;;;;8.47;3.80;;;;;;;23.31;48.17;101144.44;5072143;28;20553;-66
2020/12/20 11:28:48;;;;;;;6.73;4.20;;;;;;;23.28;48.04;101153.03;5072047;28;20215;-66